Terminal Aerodrome Forecast
Issued by NWS

Current Version | Previous Version | Graphics & Text | Print | Product List | Glossary On
Versions: 1 2 3 4 5 6 7 8 9 10 11 12 13 14 15 16 17 18 19 20 21 22
000
FTUS41 KRLX 180500 RRA
TAFCKB
TAF
KCKB 180541Z 1806/1906 26012KT P6SM BKN040
     FM181600 26012G22KT P6SM BKN040
     FM182300 25010KT P6SM BKN045
     FM190500 26006KT P6SM BKN030=

USA.gov is the U.S. government's official web portal to all federal, state and local government web resources and services.